createdAt,value
2023-05-05T00:00:32.823Z,62257.03
2023-05-05T00:05:35.511Z,62243.63
2023-05-05T00:10:39.582Z,62280.38
2023-05-05T00:15:42.987Z,62279.22
2023-05-05T00:20:47.044Z,62265.03
2023-05-05T00:25:51.086Z,62258.53
2023-05-05T00:30:53.786Z,62229.47
2023-05-05T00:35:56.522Z,62221.34
2023-05-05T00:41:00.573Z,62200.03
2023-05-05T00:46:10.605Z,62242.09
2023-05-05T00:51:14.748Z,62233.38
2023-05-05T00:56:20.887Z,62272.09
2023-05-05T01:01:24.063Z,62224.38
2023-05-05T01:06:42.413Z,62201.19
2023-05-05T01:11:52.688Z,62210.97
2023-05-05T01:17:00.036Z,62220.81
2023-05-05T01:22:08.210Z,62229.00
2023-05-05T01:27:45.941Z,62199.38
2023-05-05T01:32:55.153Z,62205.34
2023-05-05T01:38:04.652Z,62170.78
2023-05-05T01:43:09.912Z,62174.09
2023-05-05T01:48:17.926Z,62192.59
2023-05-05T01:53:22.209Z,62172.91
2023-05-05T01:58:27.887Z,62164.03
2023-05-05T02:03:34.349Z,62219.00
2023-05-05T02:08:38.942Z,62202.25
2023-05-05T02:13:44.020Z,62183.34
2023-05-05T02:18:49.429Z,62212.56
2023-05-05T02:23:52.193Z,62184.19
2023-05-05T02:29:03.342Z,62175.28
2023-05-05T02:34:09.036Z,62192.47
2023-05-05T02:39:16.327Z,62182.00
2023-05-05T02:44:20.881Z,62158.53
2023-05-05T02:49:25.340Z,62192.06
2023-05-05T02:54:28.793Z,62195.41
2023-05-05T02:59:39.249Z,62204.97
2023-05-05T03:04:46.814Z,62231.66
2023-05-05T03:09:56.765Z,62222.28
2023-05-05T03:15:01.763Z,62241.56
2023-05-05T03:20:06.943Z,62194.59
2023-05-05T03:25:10.288Z,62178.41
2023-05-05T03:30:13.988Z,62161.63
2023-05-05T03:35:18.011Z,62089.00
2023-05-05T03:40:23.490Z,62057.78
2023-05-05T03:45:29.924Z,62074.75
2023-05-05T03:50:33.987Z,62046.97
2023-05-05T03:55:36.956Z,62033.97
2023-05-05T04:00:39.583Z,62083.16
2023-05-05T04:05:43.521Z,62094.78
2023-05-05T04:10:46.618Z,62104.34
2023-05-05T04:15:49.297Z,62067.34
2023-05-05T04:20:53.348Z,62099.50
2023-05-05T04:25:56.020Z,62099.69
2023-05-05T04:30:59.387Z,62110.75
2023-05-05T04:36:03.260Z,62154.25
2023-05-05T04:41:07.218Z,62151.25
2023-05-05T04:46:09.975Z,62148.78
2023-05-05T04:51:14.062Z,62162.59
2023-05-05T04:56:16.894Z,62194.16
2023-05-05T05:01:19.560Z,62193.44
2023-05-05T05:06:23.768Z,62234.00
2023-05-05T05:11:26.477Z,62245.28
2023-05-05T05:16:29.213Z,62214.66
2023-05-05T05:21:33.202Z,62249.97
2023-05-05T05:26:35.867Z,62287.84
2023-05-05T05:31:39.770Z,62304.56
2023-05-05T05:36:43.758Z,62327.53
2023-05-05T05:41:46.452Z,62326.28
2023-05-05T05:46:49.195Z,62386.94
2023-05-05T05:51:53.204Z,62361.66
2023-05-05T05:56:55.892Z,62368.72
2023-05-05T06:01:58.570Z,62387.84
2023-05-05T06:07:02.506Z,62404.66
2023-05-05T06:12:05.270Z,62434.44
2023-05-05T06:17:07.895Z,62606.78
2023-05-05T06:22:11.854Z,62915.25
2023-05-05T06:27:14.569Z,63096.53
2023-05-05T06:32:17.294Z,63126.59
2023-05-05T06:37:21.331Z,63266.63
2023-05-05T06:42:24.097Z,63368.63
2023-05-05T06:47:26.974Z,63392.88
2023-05-05T06:52:30.996Z,63439.63
2023-05-05T06:57:33.693Z,63423.75
2023-05-05T07:02:36.385Z,63432.31
2023-05-05T07:07:42.282Z,63424.88
2023-05-05T07:12:45.027Z,63536.31
2023-05-05T07:17:47.894Z,63489.16
2023-05-05T07:22:52.050Z,63569.91
2023-05-05T07:27:54.837Z,63594.09
2023-05-05T07:32:57.779Z,63621.56
2023-05-05T07:38:02.216Z,63656.97
2023-05-05T07:43:04.914Z,63704.09
2023-05-05T07:48:07.503Z,63578.03
2023-05-05T07:53:14.811Z,63687.00
2023-05-05T07:58:18.201Z,63724.72
2023-05-05T08:03:24.287Z,63773.22
2023-05-05T08:08:28.674Z,63791.25
2023-05-05T08:13:31.362Z,63787.53
2023-05-05T08:18:37.426Z,63886.09
2023-05-05T08:23:42.444Z,63833.06
2023-05-05T08:28:45.117Z,63864.63
2023-05-05T08:33:47.732Z,63822.84
2023-05-05T08:38:52.172Z,63977.69
2023-05-05T08:43:54.870Z,64073.72
2023-05-05T08:48:58.740Z,64069.44
2023-05-05T08:54:05.259Z,64059.09
2023-05-05T08:59:09.381Z,64033.38
2023-05-05T09:04:12.035Z,64087.34
2023-05-05T09:09:16.273Z,64066.84
2023-05-05T09:14:18.927Z,64120.81
2023-05-05T09:19:21.563Z,64223.91
2023-05-05T09:24:25.521Z,64270.97
2023-05-05T09:29:28.275Z,64148.22
2023-05-05T09:34:33.527Z,63768.56
2023-05-05T09:39:37.492Z,63645.00
2023-05-05T09:44:41.096Z,63470.66
2023-05-05T09:49:43.815Z,63606.53
2023-05-05T09:54:55.058Z,63980.75
2023-05-05T09:59:58.746Z,64039.63
2023-05-05T10:05:10.835Z,64197.84
2023-05-05T10:10:16.690Z,63941.00
2023-05-05T10:15:19.870Z,63906.28
2023-05-05T10:20:23.996Z,63633.53
2023-05-05T10:25:31.493Z,63467.50
2023-05-05T10:30:41.913Z,63337.97
2023-05-05T10:35:47.290Z,63182.00
2023-05-05T10:40:51.519Z,63078.91
2023-05-05T10:45:55.255Z,62915.03
2023-05-05T10:51:07.156Z,62892.16
2023-05-05T10:56:16.407Z,62786.84
2023-05-05T11:01:33.814Z,62702.38
2023-05-05T11:06:36.661Z,62684.31
2023-05-05T11:12:06.800Z,62746.50
2023-05-05T11:17:46.600Z,62842.16
2023-05-05T11:23:23.706Z,62897.97
2023-05-05T11:28:30.964Z,62968.75
2023-05-05T11:33:36.023Z,63071.03
2023-05-05T11:39:05.350Z,63100.78
2023-05-05T11:44:13.582Z,63102.00
2023-05-05T11:49:27.440Z,63197.44
2023-05-05T11:54:31.059Z,63296.75
2023-05-05T11:59:37.226Z,63428.88
2023-05-05T12:04:40.960Z,63564.66
2023-05-05T12:14:51.812Z,63492.81
2023-05-05T12:19:55.664Z,63503.19
2023-05-05T12:25:01.016Z,63371.38
2023-05-05T12:30:16.993Z,63248.34
2023-05-05T12:35:19.843Z,62818.94
2023-05-05T12:40:40.952Z,62560.38
2023-05-05T12:45:44.991Z,62433.44
2023-05-05T12:50:47.709Z,62270.09
2023-05-05T12:55:51.268Z,62214.50
2023-05-05T13:01:10.458Z,62230.34
2023-05-05T13:06:24.563Z,62214.50
2023-05-05T13:11:27.324Z,62185.81
2023-05-05T13:16:31.499Z,62223.34
2023-05-05T13:21:34.183Z,62225.56
2023-05-05T13:26:36.887Z,62236.03
2023-05-05T13:31:41.633Z,62232.84
2023-05-05T13:36:44.492Z,62220.88
2023-05-05T13:41:47.203Z,62228.53
2023-05-05T13:46:51.819Z,62226.06
2023-05-05T13:51:55.170Z,62227.84
2023-05-05T13:56:58.108Z,62257.97
2023-05-05T14:02:02.030Z,62290.06
2023-05-05T14:07:04.830Z,62287.84
2023-05-05T14:12:07.599Z,62329.16
2023-05-05T14:17:12.778Z,62300.53
2023-05-05T14:22:15.411Z,62258.53
2023-05-05T14:27:18.002Z,62294.56
2023-05-05T14:32:23.045Z,62238.66
2023-05-05T14:37:25.781Z,62323.16
2023-05-05T14:42:28.377Z,62326.44
2023-05-05T14:47:32.401Z,62346.59
2023-05-05T14:52:36.529Z,62321.44
2023-05-05T14:57:39.252Z,62371.72
2023-05-05T15:02:43.428Z,62380.91
2023-05-05T15:07:46.160Z,62386.38
2023-05-05T15:12:49.465Z,62439.78
2023-05-05T15:17:53.585Z,62476.06
2023-05-05T15:22:56.406Z,62486.91
2023-05-05T15:28:00.944Z,62550.97
2023-05-05T15:33:05.008Z,62622.69
2023-05-05T15:38:07.792Z,62801.16
2023-05-05T15:43:10.660Z,62784.91
2023-05-05T15:48:14.696Z,62869.66
2023-05-05T15:53:17.509Z,62771.16
2023-05-05T15:58:20.443Z,62693.47
2023-05-05T16:03:24.390Z,62709.09
2023-05-05T16:08:27.054Z,62782.84
2023-05-05T16:13:29.832Z,62779.66
2023-05-05T16:18:33.846Z,62877.34
2023-05-05T16:23:36.559Z,63015.91
2023-05-05T16:28:39.303Z,63084.03
2023-05-05T16:33:43.766Z,63013.03
2023-05-05T16:38:46.475Z,62984.25
2023-05-05T16:43:48.962Z,63043.97
2023-05-05T16:48:54.058Z,63041.38
2023-05-05T16:53:57.103Z,63003.69
2023-05-05T16:58:59.776Z,62989.47
2023-05-05T17:04:03.759Z,63048.19
2023-05-05T17:09:06.727Z,62956.78
2023-05-05T17:14:09.358Z,62874.16
2023-05-05T17:19:13.344Z,62794.06
2023-05-05T17:24:16.003Z,62816.69
2023-05-05T17:29:19.861Z,62807.91
2023-05-05T17:34:23.677Z,62782.69
2023-05-05T17:39:26.313Z,62645.25
2023-05-05T17:44:28.930Z,62621.91
2023-05-05T17:49:32.825Z,62554.44
2023-05-05T17:54:35.485Z,62522.84
2023-05-05T17:59:38.174Z,62494.56
2023-05-05T18:04:42.556Z,62465.81
2023-05-05T18:09:45.264Z,62467.53
2023-05-05T18:14:47.886Z,62429.91
2023-05-05T18:19:51.860Z,62435.47
2023-05-05T18:24:58.907Z,62447.19
2023-05-05T18:30:01.743Z,62362.88
2023-05-05T18:35:06.514Z,62353.56
2023-05-05T18:40:10.955Z,62335.34
2023-05-05T18:45:13.952Z,62313.94
2023-05-05T18:50:18.981Z,62269.03
2023-05-05T18:55:22.107Z,62244.63
2023-05-05T19:00:25.098Z,62220.72
2023-05-05T19:05:29.233Z,62231.81
2023-05-05T19:10:31.830Z,62219.34
2023-05-05T19:15:34.497Z,62153.47
2023-05-05T19:20:42.780Z,62152.53
2023-05-05T19:25:45.507Z,62117.78
2023-05-05T19:30:48.713Z,62130.72
2023-05-05T19:35:52.717Z,62082.91
2023-05-05T19:40:55.328Z,62087.69
2023-05-05T19:45:57.893Z,62076.91
2023-05-05T19:51:01.982Z,62034.91
2023-05-05T19:56:05.758Z,62042.00
2023-05-05T20:01:08.435Z,62050.16
2023-05-05T20:06:12.448Z,62052.44
2023-05-05T20:11:15.396Z,62048.16
2023-05-05T20:16:18.411Z,62003.53
2023-05-05T20:21:23.508Z,62027.31
2023-05-05T20:26:26.510Z,62004.69
2023-05-05T20:31:29.290Z,62013.22
2023-05-05T20:36:33.392Z,61983.28
2023-05-05T20:41:37.957Z,61961.13
2023-05-05T20:46:40.703Z,61952.25
2023-05-05T20:51:44.653Z,61942.94
2023-05-05T20:56:47.300Z,61955.28
2023-05-05T21:01:49.954Z,61980.50
2023-05-05T21:06:53.925Z,61937.75
2023-05-05T21:11:56.589Z,61959.50
2023-05-05T21:16:59.254Z,61926.38
2023-05-05T21:22:03.208Z,61987.91
2023-05-05T21:27:05.891Z,61939.34
2023-05-05T21:32:09.731Z,61933.19
2023-05-05T21:37:13.686Z,61955.59
2023-05-05T21:42:16.406Z,61944.19
2023-05-05T21:47:19.005Z,61937.38
2023-05-05T21:52:24.001Z,61912.56
2023-05-05T21:57:26.608Z,61912.03
2023-05-05T22:02:29.275Z,61913.72
2023-05-05T22:07:33.348Z,61907.06
2023-05-05T22:12:36.010Z,61897.06
2023-05-05T22:17:38.627Z,61885.06
2023-05-05T22:22:42.662Z,61902.53
2023-05-05T22:27:45.433Z,61932.31
2023-05-05T22:32:48.167Z,61944.38
2023-05-05T22:37:52.169Z,61902.53
2023-05-05T22:42:54.777Z,61924.34
2023-05-05T22:47:57.546Z,61877.53
2023-05-05T22:53:01.597Z,61847.13
2023-05-05T22:58:04.220Z,61894.06
2023-05-05T23:03:06.993Z,61857.03
2023-05-05T23:08:11.117Z,61883.34
2023-05-05T23:13:13.873Z,61828.56
2023-05-05T23:18:16.523Z,61887.72
2023-05-05T23:23:20.597Z,61941.69
2023-05-05T23:28:23.284Z,61948.53
2023-05-05T23:33:25.943Z,61961.53
2023-05-05T23:38:29.913Z,61957.88
2023-05-05T23:43:32.519Z,61958.84
2023-05-05T23:48:35.115Z,61970.19
2023-05-05T23:53:39.042Z,61988.81
2023-05-05T23:58:41.628Z,61984.94
